This demonstration page uses our WeatherBlox Daily Observations layout. Learn more.

Left ArrowRight Arrow

Hourly Observations for November 23, 2016

Temp ( °F °C ) Dew Point ( °F °C ) Humidity (%) Winds ( mph kmh ) Pressure ( in mb ) Visibility ( mi km ) Precip ( " mm )
12:51 am 00:51 Clear 43 6.1 35 1.7 74 74 SE 5 7 30.09 1019 10 16.0934 N/A
1:51 am 01:51 Clear 43 6.1 33 0.6 68 68 ESE 8 13 30.09 1019 10 16.0934 N/A
2:51 am 02:51 Clear 44 6.7 33 0.6 65 65 SSE 13 20 30.09 1019 10 16.0934 N/A
3:51 am 03:51 Clear 44 6.7 31 -0.6 60 60 SSE 13 20 30.1 1019 10 16.0934 0.01 0.254
4:51 am 04:51 Clear 45 7.2 31 -0.6 58 58 SE 10 17 30.11 1020 10 16.0934 N/A
5:51 am 05:51 Clear 42 5.6 31 -0.6 65 65 SSE 10 17 30.14 1021 10 16.0934 N/A
6:51 am 06:51 Clear 45 7.2 31 -0.6 58 58 SE 13 20 30.15 1021 10 16.0934 N/A
7:51 am 07:51 Sunny 47 8.3 31 -0.6 54 54 ESE 12 19 30.16 1021 10 16.0934 N/A
8:51 am 08:51 Sunny 52 11.1 31 -0.6 45 45 SE 12 19 30.17 1022 10 16.0934 N/A
9:51 am 09:51 Sunny 57 13.9 31 -0.6 37 37 ESE 13 20 30.16 1021 10 16.0934 N/A
10:51 am 10:51 Sunny 61 16.1 30 -1.1 31 31 SSE 6 9 30.15 1021 10 16.0934 N/A
11:51 am 11:51 Sunny 63 17.2 31 -0.6 30 30 SW 6 9 30.1 1019 10 16.0934 N/A
12:51 pm 12:51 Sunny 67 19.4 31 -0.6 26 26 SE 8 13 30.05 1018 10 16.0934 N/A
1:51 pm 13:51 Sunny 68 20 31 -0.6 25 25 SSE 10 17 30.02 1017 10 16.0934 N/A
2:51 pm 14:51 Sunny 69 20.6 30 -1.1 23 23 SW 3 6 30 1016 10 16.0934 N/A
3:51 pm 15:51 Sunny 68 20 29 -1.7 23 23 SSW 5 7 30 1016 10 16.0934 N/A
4:51 pm 16:51 Sunny 66 18.9 29 -1.7 25 25 SSW 5 7 30 1016 10 16.0934 N/A
5:51 pm 17:51 Clear 57 13.9 30 -1.1 36 36 N 7 11 30.03 1017 10 16.0934 N/A
6:51 pm 18:51 Clear 52 11.1 30 -1.1 43 43 VRB 5 7 30.04 1017 10 16.0934 N/A
7:51 pm 19:51 Clear 51 10.6 30 -1.1 44 44 N N/A 30.06 1018 10 16.0934 N/A
8:51 pm 20:51 Clear 46 7.8 30 -1.1 54 54 N N/A 30.07 1018 10 16.0934 N/A
9:51 pm 21:51 Clear 44 6.7 29 -1.7 55 55 SE 3 6 30.06 1018 10 16.0934 N/A
10:51 pm 22:51 Clear 44 6.7 29 -1.7 55 55 N N/A 30.06 1018 10 16.0934 N/A
11:51 pm 23:51 Clear 42 5.6 30 -1.1 62 62 N 5 7 30.07 1018 10 16.0934 N/A

Powered by AerisWeather